sensor_id;sensor_type;location;lat;lon;timestamp;P1;durP1;ratioP1;P2;durP2;ratioP2
62435;SDS011;48480;50.252;18.848;2023-11-21T00:01:20;7.70;;;5.20;;
62435;SDS011;48480;50.252;18.848;2023-11-21T00:04:05;7.50;;;5.10;;
62435;SDS011;48480;50.252;18.848;2023-11-21T00:06:50;7.70;;;4.20;;
62435;SDS011;48480;50.252;18.848;2023-11-21T00:09:35;8.90;;;4.70;;
62435;SDS011;48480;50.252;18.848;2023-11-21T00:12:20;7.30;;;4.20;;
62435;SDS011;48480;50.252;18.848;2023-11-21T00:15:04;6.50;;;4.00;;
62435;SDS011;48480;50.252;18.848;2023-11-21T00:17:54;8.10;;;5.30;;
62435;SDS011;48480;50.252;18.848;2023-11-21T00:20:38;10.90;;;5.60;;
62435;SDS011;48480;50.252;18.848;2023-11-21T00:23:22;8.80;;;6.60;;
62435;SDS011;48480;50.252;18.848;2023-11-21T00:26:06;10.00;;;7.20;;
62435;SDS011;48480;50.252;18.848;2023-11-21T00:28:50;8.10;;;5.80;;
62435;SDS011;48480;50.252;18.848;2023-11-21T00:31:34;12.10;;;7.10;;
62435;SDS011;48480;50.252;18.848;2023-11-21T00:34:22;11.10;;;8.70;;
62435;SDS011;48480;50.252;18.848;2023-11-21T00:37:06;12.90;;;8.90;;
62435;SDS011;48480;50.252;18.848;2023-11-21T00:39:51;13.40;;;8.80;;
62435;SDS011;48480;50.252;18.848;2023-11-21T00:42:35;12.70;;;9.60;;
62435;SDS011;48480;50.252;18.848;2023-11-21T00:45:20;15.30;;;9.10;;
62435;SDS011;48480;50.252;18.848;2023-11-21T00:48:03;12.20;;;7.50;;
62435;SDS011;48480;50.252;18.848;2023-11-21T00:50:48;11.30;;;7.30;;
62435;SDS011;48480;50.252;18.848;2023-11-21T00:53:34;9.90;;;6.50;;
62435;SDS011;48480;50.252;18.848;2023-11-21T00:56:18;9.70;;;6.30;;
62435;SDS011;48480;50.252;18.848;2023-11-21T00:59:02;9.00;;;5.90;;
62435;SDS011;48480;50.252;18.848;2023-11-21T01:01:48;6.80;;;4.70;;
62435;SDS011;48480;50.252;18.848;2023-11-21T01:04:32;6.80;;;5.20;;
62435;SDS011;48480;50.252;18.848;2023-11-21T01:07:16;6.10;;;3.90;;
62435;SDS011;48480;50.252;18.848;2023-11-21T01:10:04;6.40;;;3.80;;
62435;SDS011;48480;50.252;18.848;2023-11-21T01:12:52;6.60;;;3.50;;
62435;SDS011;48480;50.252;18.848;2023-11-21T01:15:36;6.30;;;4.10;;
62435;SDS011;48480;50.252;18.848;2023-11-21T01:18:20;6.30;;;4.10;;
62435;SDS011;48480;50.252;18.848;2023-11-21T01:21:04;6.40;;;3.80;;
62435;SDS011;48480;50.252;18.848;2023-11-21T01:23:48;8.90;;;3.80;;
62435;SDS011;48480;50.252;18.848;2023-11-21T01:26:33;6.90;;;4.30;;
62435;SDS011;48480;50.252;18.848;2023-11-21T01:29:18;7.90;;;3.90;;
62435;SDS011;48480;50.252;18.848;2023-11-21T01:32:03;6.20;;;4.90;;
62435;SDS011;48480;50.252;18.848;2023-11-21T01:34:50;7.20;;;4.80;;
62435;SDS011;48480;50.252;18.848;2023-11-21T01:37:34;8.00;;;4.70;;
62435;SDS011;48480;50.252;18.848;2023-11-21T01:40:18;7.10;;;4.80;;
62435;SDS011;48480;50.252;18.848;2023-11-21T01:43:02;7.80;;;4.60;;
62435;SDS011;48480;50.252;18.848;2023-11-21T01:45:47;5.60;;;4.40;;
62435;SDS011;48480;50.252;18.848;2023-11-21T01:48:30;6.20;;;3.40;;
62435;SDS011;48480;50.252;18.848;2023-11-21T01:51:16;7.60;;;3.90;;
62435;SDS011;48480;50.252;18.848;2023-11-21T01:54:00;6.70;;;4.10;;
62435;SDS011;48480;50.252;18.848;2023-11-21T01:56:45;7.60;;;4.10;;
62435;SDS011;48480;50.252;18.848;2023-11-21T01:59:33;5.30;;;3.60;;
62435;SDS011;48480;50.252;18.848;2023-11-21T02:02:18;8.80;;;4.60;;
62435;SDS011;48480;50.252;18.848;2023-11-21T02:05:03;5.60;;;3.60;;
62435;SDS011;48480;50.252;18.848;2023-11-21T02:07:47;6.50;;;4.10;;
62435;SDS011;48480;50.252;18.848;2023-11-21T02:10:31;9.60;;;5.30;;
62435;SDS011;48480;50.252;18.848;2023-11-21T02:13:16;8.40;;;4.70;;
62435;SDS011;48480;50.252;18.848;2023-11-21T02:16:01;7.70;;;4.10;;
62435;SDS011;48480;50.252;18.848;2023-11-21T02:18:49;7.10;;;4.60;;
62435;SDS011;48480;50.252;18.848;2023-11-21T02:21:35;8.30;;;3.70;;
62435;SDS011;48480;50.252;18.848;2023-11-21T02:24:23;8.70;;;4.70;;
62435;SDS011;48480;50.252;18.848;2023-11-21T02:27:07;5.80;;;4.20;;
62435;SDS011;48480;50.252;18.848;2023-11-21T02:29:52;8.10;;;5.60;;
62435;SDS011;48480;50.252;18.848;2023-11-21T02:32:36;11.50;;;5.20;;
62435;SDS011;48480;50.252;18.848;2023-11-21T02:35:20;8.80;;;5.60;;
62435;SDS011;48480;50.252;18.848;2023-11-21T02:38:05;9.10;;;4.80;;
62435;SDS011;48480;50.252;18.848;2023-11-21T02:40:50;7.20;;;3.80;;
62435;SDS011;48480;50.252;18.848;2023-11-21T02:43:33;5.20;;;3.60;;
62435;SDS011;48480;50.252;18.848;2023-11-21T02:46:17;6.20;;;4.10;;
62435;SDS011;48480;50.252;18.848;2023-11-21T02:49:02;10.70;;;5.30;;
62435;SDS011;48480;50.252;18.848;2023-11-21T02:51:47;9.60;;;5.60;;
62435;SDS011;48480;50.252;18.848;2023-11-21T02:54:31;10.20;;;5.50;;
62435;SDS011;48480;50.252;18.848;2023-11-21T02:57:19;6.30;;;4.30;;
62435;SDS011;48480;50.252;18.848;2023-11-21T03:00:03;7.80;;;3.70;;
62435;SDS011;48480;50.252;18.848;2023-11-21T03:02:58;7.10;;;4.10;;
62435;SDS011;48480;50.252;18.848;2023-11-21T03:05:42;6.90;;;4.30;;
62435;SDS011;48480;50.252;18.848;2023-11-21T03:08:26;8.70;;;4.20;;
62435;SDS011;48480;50.252;18.848;2023-11-21T03:11:11;5.90;;;3.20;;
62435;SDS011;48480;50.252;18.848;2023-11-21T03:13:56;6.90;;;3.80;;
62435;SDS011;48480;50.252;18.848;2023-11-21T03:16:40;6.10;;;3.60;;
62435;SDS011;48480;50.252;18.848;2023-11-21T03:19:24;6.50;;;2.80;;
62435;SDS011;48480;50.252;18.848;2023-11-21T03:22:08;7.20;;;2.90;;
62435;SDS011;48480;50.252;18.848;2023-11-21T03:24:53;7.10;;;3.50;;
62435;SDS011;48480;50.252;18.848;2023-11-21T03:27:37;8.50;;;4.20;;
62435;SDS011;48480;50.252;18.848;2023-11-21T03:30:22;6.90;;;3.70;;
62435;SDS011;48480;50.252;18.848;2023-11-21T03:33:06;7.60;;;4.30;;
62435;SDS011;48480;50.252;18.848;2023-11-21T03:35:51;6.50;;;3.90;;
62435;SDS011;48480;50.252;18.848;2023-11-21T03:38:36;7.20;;;3.50;;
62435;SDS011;48480;50.252;18.848;2023-11-21T03:41:21;10.50;;;4.80;;
62435;SDS011;48480;50.252;18.848;2023-11-21T03:44:05;6.10;;;3.60;;
62435;SDS011;48480;50.252;18.848;2023-11-21T03:46:49;9.10;;;4.40;;
62435;SDS011;48480;50.252;18.848;2023-11-21T03:49:33;8.90;;;5.00;;
62435;SDS011;48480;50.252;18.848;2023-11-21T03:52:17;8.00;;;5.50;;
62435;SDS011;48480;50.252;18.848;2023-11-21T03:55:01;9.30;;;5.00;;
62435;SDS011;48480;50.252;18.848;2023-11-21T03:57:46;8.20;;;5.00;;
62435;SDS011;48480;50.252;18.848;2023-11-21T04:00:29;8.90;;;5.60;;
62435;SDS011;48480;50.252;18.848;2023-11-21T04:03:13;8.10;;;4.80;;
62435;SDS011;48480;50.252;18.848;2023-11-21T04:05:58;9.10;;;4.90;;
62435;SDS011;48480;50.252;18.848;2023-11-21T04:08:42;6.90;;;4.60;;
62435;SDS011;48480;50.252;18.848;2023-11-21T04:11:26;7.40;;;4.70;;
62435;SDS011;48480;50.252;18.848;2023-11-21T04:14:11;14.00;;;6.40;;
62435;SDS011;48480;50.252;18.848;2023-11-21T04:16:55;12.50;;;7.50;;
62435;SDS011;48480;50.252;18.848;2023-11-21T04:19:39;15.30;;;8.40;;
62435;SDS011;48480;50.252;18.848;2023-11-21T04:22:23;11.10;;;7.10;;
62435;SDS011;48480;50.252;18.848;2023-11-21T04:25:10;14.10;;;8.20;;
62435;SDS011;48480;50.252;18.848;2023-11-21T04:27:56;8.30;;;5.30;;
62435;SDS011;48480;50.252;18.848;2023-11-21T04:30:40;11.70;;;5.70;;
62435;SDS011;48480;50.252;18.848;2023-11-21T04:33:24;10.70;;;5.20;;
62435;SDS011;48480;50.252;18.848;2023-11-21T04:36:11;8.20;;;5.30;;
62435;SDS011;48480;50.252;18.848;2023-11-21T04:38:56;16.10;;;8.60;;
62435;SDS011;48480;50.252;18.848;2023-11-21T04:41:40;11.80;;;7.00;;
62435;SDS011;48480;50.252;18.848;2023-11-21T04:44:24;12.40;;;7.30;;
62435;SDS011;48480;50.252;18.848;2023-11-21T04:47:08;15.10;;;7.30;;
62435;SDS011;48480;50.252;18.848;2023-11-21T04:49:52;10.90;;;6.30;;
62435;SDS011;48480;50.252;18.848;2023-11-21T04:52:36;9.90;;;6.60;;
62435;SDS011;48480;50.252;18.848;2023-11-21T04:55:20;9.80;;;6.10;;
62435;SDS011;48480;50.252;18.848;2023-11-21T04:58:04;8.80;;;6.20;;
62435;SDS011;48480;50.252;18.848;2023-11-21T05:00:47;11.10;;;6.80;;
62435;SDS011;48480;50.252;18.848;2023-11-21T05:03:33;10.40;;;7.60;;
62435;SDS011;48480;50.252;18.848;2023-11-21T05:06:17;11.00;;;7.70;;
62435;SDS011;48480;50.252;18.848;2023-11-21T05:09:01;13.90;;;7.90;;
62435;SDS011;48480;50.252;18.848;2023-11-21T05:11:46;10.20;;;6.60;;
62435;SDS011;48480;50.252;18.848;2023-11-21T05:14:30;11.20;;;7.50;;
62435;SDS011;48480;50.252;18.848;2023-11-21T05:17:14;8.80;;;6.00;;
62435;SDS011;48480;50.252;18.848;2023-11-21T05:19:58;7.50;;;5.80;;
62435;SDS011;48480;50.252;18.848;2023-11-21T05:22:41;9.30;;;6.60;;
62435;SDS011;48480;50.252;18.848;2023-11-21T05:25:25;14.50;;;7.70;;
62435;SDS011;48480;50.252;18.848;2023-11-21T05:28:09;8.70;;;6.60;;
62435;SDS011;48480;50.252;18.848;2023-11-21T05:30:53;10.00;;;6.70;;
62435;SDS011;48480;50.252;18.848;2023-11-21T05:33:38;10.90;;;7.40;;
62435;SDS011;48480;50.252;18.848;2023-11-21T05:36:22;8.70;;;5.90;;
62435;SDS011;48480;50.252;18.848;2023-11-21T05:39:06;8.20;;;5.60;;
62435;SDS011;48480;50.252;18.848;2023-11-21T05:41:49;10.60;;;6.60;;
62435;SDS011;48480;50.252;18.848;2023-11-21T05:44:33;14.60;;;8.70;;
62435;SDS011;48480;50.252;18.848;2023-11-21T05:47:18;12.00;;;7.20;;
62435;SDS011;48480;50.252;18.848;2023-11-21T05:50:03;12.20;;;8.20;;
62435;SDS011;48480;50.252;18.848;2023-11-21T05:52:49;12.40;;;8.50;;
62435;SDS011;48480;50.252;18.848;2023-11-21T05:55:33;10.20;;;7.50;;
62435;SDS011;48480;50.252;18.848;2023-11-21T05:58:17;12.70;;;7.90;;
62435;SDS011;48480;50.252;18.848;2023-11-21T06:01:02;13.30;;;8.10;;
62435;SDS011;48480;50.252;18.848;2023-11-21T06:03:51;12.80;;;7.80;;
62435;SDS011;48480;50.252;18.848;2023-11-21T06:06:35;12.30;;;8.10;;
62435;SDS011;48480;50.252;18.848;2023-11-21T06:09:20;15.80;;;8.50;;
62435;SDS011;48480;50.252;18.848;2023-11-21T06:12:04;11.40;;;8.20;;
62435;SDS011;48480;50.252;18.848;2023-11-21T06:14:49;15.20;;;10.30;;
62435;SDS011;48480;50.252;18.848;2023-11-21T06:17:33;12.30;;;10.10;;
62435;SDS011;48480;50.252;18.848;2023-11-21T06:20:19;13.00;;;8.70;;
62435;SDS011;48480;50.252;18.848;2023-11-21T06:23:04;12.00;;;9.00;;
62435;SDS011;48480;50.252;18.848;2023-11-21T06:25:49;12.30;;;9.30;;
62435;SDS011;48480;50.252;18.848;2023-11-21T06:28:33;11.90;;;8.40;;
62435;SDS011;48480;50.252;18.848;2023-11-21T06:31:17;17.50;;;11.50;;
62435;SDS011;48480;50.252;18.848;2023-11-21T06:34:01;16.20;;;12.20;;
62435;SDS011;48480;50.252;18.848;2023-11-21T06:36:47;17.40;;;12.50;;
62435;SDS011;48480;50.252;18.848;2023-11-21T06:39:31;19.70;;;13.30;;
62435;SDS011;48480;50.252;18.848;2023-11-21T06:42:15;20.00;;;13.70;;
62435;SDS011;48480;50.252;18.848;2023-11-21T06:44:59;16.70;;;12.20;;
62435;SDS011;48480;50.252;18.848;2023-11-21T06:47:47;16.10;;;10.90;;
62435;SDS011;48480;50.252;18.848;2023-11-21T06:50:32;14.90;;;10.60;;
62435;SDS011;48480;50.252;18.848;2023-11-21T06:53:15;13.30;;;10.30;;
62435;SDS011;48480;50.252;18.848;2023-11-21T06:55:59;17.20;;;12.60;;
62435;SDS011;48480;50.252;18.848;2023-11-21T06:58:45;14.40;;;10.50;;
62435;SDS011;48480;50.252;18.848;2023-11-21T07:01:29;12.60;;;9.10;;
62435;SDS011;48480;50.252;18.848;2023-11-21T07:04:13;15.90;;;8.70;;
62435;SDS011;48480;50.252;18.848;2023-11-21T07:06:57;14.50;;;8.70;;
62435;SDS011;48480;50.252;18.848;2023-11-21T07:09:41;17.80;;;8.20;;
62435;SDS011;48480;50.252;18.848;2023-11-21T07:12:26;14.40;;;9.10;;
62435;SDS011;48480;50.252;18.848;2023-11-21T07:15:10;13.00;;;8.00;;
62435;SDS011;48480;50.252;18.848;2023-11-21T07:17:54;11.90;;;8.20;;
62435;SDS011;48480;50.252;18.848;2023-11-21T07:20:38;11.50;;;8.70;;
62435;SDS011;48480;50.252;18.848;2023-11-21T07:23:23;13.30;;;8.10;;
62435;SDS011;48480;50.252;18.848;2023-11-21T07:26:06;15.00;;;9.50;;
62435;SDS011;48480;50.252;18.848;2023-11-21T07:28:53;13.90;;;8.70;;
62435;SDS011;48480;50.252;18.848;2023-11-21T07:31:38;13.70;;;8.90;;
62435;SDS011;48480;50.252;18.848;2023-11-21T07:34:22;14.00;;;9.00;;
62435;SDS011;48480;50.252;18.848;2023-11-21T07:37:06;15.60;;;9.40;;
62435;SDS011;48480;50.252;18.848;2023-11-21T07:39:50;14.90;;;9.80;;
62435;SDS011;48480;50.252;18.848;2023-11-21T07:42:39;16.20;;;10.60;;
62435;SDS011;48480;50.252;18.848;2023-11-21T07:45:23;14.80;;;10.00;;
62435;SDS011;48480;50.252;18.848;2023-11-21T07:48:07;15.30;;;10.60;;
62435;SDS011;48480;50.252;18.848;2023-11-21T07:50:51;18.80;;;11.70;;
62435;SDS011;48480;50.252;18.848;2023-11-21T07:53:36;19.90;;;11.00;;
62435;SDS011;48480;50.252;18.848;2023-11-21T07:56:20;20.40;;;11.60;;
62435;SDS011;48480;50.252;18.848;2023-11-21T07:59:04;22.40;;;11.90;;
62435;SDS011;48480;50.252;18.848;2023-11-21T08:01:48;22.80;;;13.50;;
62435;SDS011;48480;50.252;18.848;2023-11-21T08:04:33;18.50;;;11.90;;
62435;SDS011;48480;50.252;18.848;2023-11-21T08:07:19;19.10;;;11.30;;
62435;SDS011;48480;50.252;18.848;2023-11-21T08:10:03;18.70;;;11.30;;
62435;SDS011;48480;50.252;18.848;2023-11-21T08:12:48;14.30;;;9.70;;
62435;SDS011;48480;50.252;18.848;2023-11-21T08:15:34;27.40;;;13.90;;
62435;SDS011;48480;50.252;18.848;2023-11-21T08:18:20;29.00;;;15.30;;
62435;SDS011;48480;50.252;18.848;2023-11-21T08:21:05;18.00;;;11.70;;
62435;SDS011;48480;50.252;18.848;2023-11-21T08:23:48;16.70;;;11.00;;
62435;SDS011;48480;50.252;18.848;2023-11-21T08:26:37;14.30;;;10.40;;
62435;SDS011;48480;50.252;18.848;2023-11-21T08:29:21;19.80;;;12.10;;
62435;SDS011;48480;50.252;18.848;2023-11-21T08:32:06;20.60;;;12.80;;
62435;SDS011;48480;50.252;18.848;2023-11-21T08:34:50;20.20;;;12.70;;
62435;SDS011;48480;50.252;18.848;2023-11-21T08:37:35;17.50;;;10.70;;
62435;SDS011;48480;50.252;18.848;2023-11-21T08:40:22;17.90;;;9.80;;
62435;SDS011;48480;50.252;18.848;2023-11-21T08:43:07;17.10;;;10.50;;
62435;SDS011;48480;50.252;18.848;2023-11-21T08:45:51;18.30;;;11.30;;
62435;SDS011;48480;50.252;18.848;2023-11-21T08:48:40;17.60;;;11.30;;
62435;SDS011;48480;50.252;18.848;2023-11-21T08:51:24;17.40;;;11.00;;
62435;SDS011;48480;50.252;18.848;2023-11-21T08:54:09;13.10;;;8.60;;
62435;SDS011;48480;50.252;18.848;2023-11-21T08:56:54;17.30;;;8.40;;
62435;SDS011;48480;50.252;18.848;2023-11-21T08:59:38;10.30;;;6.40;;
62435;SDS011;48480;50.252;18.848;2023-11-21T09:02:22;12.80;;;7.70;;
62435;SDS011;48480;50.252;18.848;2023-11-21T09:05:10;17.00;;;9.60;;
62435;SDS011;48480;50.252;18.848;2023-11-21T09:07:58;15.20;;;8.30;;
62435;SDS011;48480;50.252;18.848;2023-11-21T09:10:42;16.20;;;9.30;;
62435;SDS011;48480;50.252;18.848;2023-11-21T09:13:30;14.90;;;7.60;;
62435;SDS011;48480;50.252;18.848;2023-11-21T09:16:15;11.90;;;7.00;;
62435;SDS011;48480;50.252;18.848;2023-11-21T09:19:02;12.30;;;7.40;;
62435;SDS011;48480;50.252;18.848;2023-11-21T09:21:48;13.10;;;7.50;;
62435;SDS011;48480;50.252;18.848;2023-11-21T09:24:33;10.10;;;6.40;;
62435;SDS011;48480;50.252;18.848;2023-11-21T09:27:18;10.30;;;6.40;;
62435;SDS011;48480;50.252;18.848;2023-11-21T09:30:03;14.30;;;6.90;;
62435;SDS011;48480;50.252;18.848;2023-11-21T09:32:49;9.00;;;5.50;;
62435;SDS011;48480;50.252;18.848;2023-11-21T09:35:34;11.00;;;5.70;;
62435;SDS011;48480;50.252;18.848;2023-11-21T09:38:18;9.00;;;4.00;;
62435;SDS011;48480;50.252;18.848;2023-11-21T09:41:05;10.50;;;4.30;;
62435;SDS011;48480;50.252;18.848;2023-11-21T09:44:05;8.60;;;4.30;;
62435;SDS011;48480;50.252;18.848;2023-11-21T09:46:54;43.40;;;20.30;;
62435;SDS011;48480;50.252;18.848;2023-11-21T09:49:45;29.40;;;13.10;;
62435;SDS011;48480;50.252;18.848;2023-11-21T09:52:31;12.60;;;7.30;;
62435;SDS011;48480;50.252;18.848;2023-11-21T09:55:22;26.50;;;13.00;;
62435;SDS011;48480;50.252;18.848;2023-11-21T09:58:08;16.30;;;9.60;;
62435;SDS011;48480;50.252;18.848;2023-11-21T10:00:55;10.40;;;5.90;;
62435;SDS011;48480;50.252;18.848;2023-11-21T10:03:43;8.40;;;5.40;;
62435;SDS011;48480;50.252;18.848;2023-11-21T10:06:27;10.20;;;4.80;;
62435;SDS011;48480;50.252;18.848;2023-11-21T10:09:14;7.80;;;4.40;;
62435;SDS011;48480;50.252;18.848;2023-11-21T10:11:59;7.80;;;4.10;;
62435;SDS011;48480;50.252;18.848;2023-11-21T10:14:44;9.20;;;4.70;;
62435;SDS011;48480;50.252;18.848;2023-11-21T10:17:32;9.60;;;5.00;;
62435;SDS011;48480;50.252;18.848;2023-11-21T10:20:26;8.70;;;4.90;;
62435;SDS011;48480;50.252;18.848;2023-11-21T10:23:11;8.60;;;5.10;;
62435;SDS011;48480;50.252;18.848;2023-11-21T10:25:56;8.50;;;4.90;;
62435;SDS011;48480;50.252;18.848;2023-11-21T10:28:55;6.80;;;4.30;;
62435;SDS011;48480;50.252;18.848;2023-11-21T10:31:41;4.50;;;3.50;;
62435;SDS011;48480;50.252;18.848;2023-11-21T10:34:25;5.20;;;2.90;;
62435;SDS011;48480;50.252;18.848;2023-11-21T10:37:13;5.30;;;2.30;;
62435;SDS011;48480;50.252;18.848;2023-11-21T10:39:59;6.20;;;2.10;;
62435;SDS011;48480;50.252;18.848;2023-11-21T10:42:43;4.20;;;2.20;;
62435;SDS011;48480;50.252;18.848;2023-11-21T10:45:27;5.60;;;3.20;;
62435;SDS011;48480;50.252;18.848;2023-11-21T10:48:13;7.40;;;3.20;;
62435;SDS011;48480;50.252;18.848;2023-11-21T10:51:01;4.20;;;2.70;;
62435;SDS011;48480;50.252;18.848;2023-11-21T10:53:51;7.00;;;3.30;;
62435;SDS011;48480;50.252;18.848;2023-11-21T10:56:36;6.10;;;3.20;;
62435;SDS011;48480;50.252;18.848;2023-11-21T10:59:25;6.60;;;4.30;;
62435;SDS011;48480;50.252;18.848;2023-11-21T11:02:23;6.80;;;3.40;;
62435;SDS011;48480;50.252;18.848;2023-11-21T11:05:11;5.30;;;3.20;;
62435;SDS011;48480;50.252;18.848;2023-11-21T11:08:01;4.90;;;3.70;;
62435;SDS011;48480;50.252;18.848;2023-11-21T11:10:52;2.30;;;1.70;;
62435;SDS011;48480;50.252;18.848;2023-11-21T11:13:37;5.20;;;2.70;;
62435;SDS011;48480;50.252;18.848;2023-11-21T11:16:21;6.50;;;3.20;;
62435;SDS011;48480;50.252;18.848;2023-11-21T11:19:08;3.80;;;2.30;;
62435;SDS011;48480;50.252;18.848;2023-11-21T11:22:08;6.30;;;3.20;;
62435;SDS011;48480;50.252;18.848;2023-11-21T11:28:07;6.00;;;3.10;;
62435;SDS011;48480;50.252;18.848;2023-11-21T11:31:05;5.90;;;3.20;;
62435;SDS011;48480;50.252;18.848;2023-11-21T11:34:15;6.60;;;3.40;;
62435;SDS011;48480;50.252;18.848;2023-11-21T11:37:04;3.50;;;2.30;;
62435;SDS011;48480;50.252;18.848;2023-11-21T11:39:51;4.80;;;2.10;;
62435;SDS011;48480;50.252;18.848;2023-11-21T11:42:37;4.60;;;2.20;;
62435;SDS011;48480;50.252;18.848;2023-11-21T11:45:21;6.80;;;2.90;;
62435;SDS011;48480;50.252;18.848;2023-11-21T11:48:05;7.40;;;3.20;;
62435;SDS011;48480;50.252;18.848;2023-11-21T11:51:05;6.30;;;3.50;;
62435;SDS011;48480;50.252;18.848;2023-11-21T11:53:57;5.40;;;3.20;;
62435;SDS011;48480;50.252;18.848;2023-11-21T11:56:41;4.40;;;3.00;;
62435;SDS011;48480;50.252;18.848;2023-11-21T11:59:26;5.40;;;2.90;;
62435;SDS011;48480;50.252;18.848;2023-11-21T12:02:09;6.20;;;2.60;;
62435;SDS011;48480;50.252;18.848;2023-11-21T12:04:55;4.40;;;2.20;;
62435;SDS011;48480;50.252;18.848;2023-11-21T12:10:34;6.40;;;2.20;;
62435;SDS011;48480;50.252;18.848;2023-11-21T12:13:19;4.70;;;2.40;;
62435;SDS011;48480;50.252;18.848;2023-11-21T12:16:04;3.90;;;2.30;;
62435;SDS011;48480;50.252;18.848;2023-11-21T12:18:49;4.60;;;2.20;;
62435;SDS011;48480;50.252;18.848;2023-11-21T12:21:34;4.60;;;2.30;;
62435;SDS011;48480;50.252;18.848;2023-11-21T12:24:19;5.90;;;2.20;;
62435;SDS011;48480;50.252;18.848;2023-11-21T12:27:03;8.30;;;2.90;;
62435;SDS011;48480;50.252;18.848;2023-11-21T12:29:48;4.90;;;2.50;;
62435;SDS011;48480;50.252;18.848;2023-11-21T12:32:32;4.50;;;2.00;;
62435;SDS011;48480;50.252;18.848;2023-11-21T12:35:16;8.10;;;4.10;;
62435;SDS011;48480;50.252;18.848;2023-11-21T12:38:04;12.70;;;6.10;;
62435;SDS011;48480;50.252;18.848;2023-11-21T12:40:48;15.10;;;5.80;;
62435;SDS011;48480;50.252;18.848;2023-11-21T12:43:34;8.20;;;3.50;;
62435;SDS011;48480;50.252;18.848;2023-11-21T12:46:18;11.50;;;5.10;;
62435;SDS011;48480;50.252;18.848;2023-11-21T12:49:03;12.20;;;5.10;;
62435;SDS011;48480;50.252;18.848;2023-11-21T12:51:47;7.90;;;4.30;;
62435;SDS011;48480;50.252;18.848;2023-11-21T12:54:31;6.90;;;3.10;;
62435;SDS011;48480;50.252;18.848;2023-11-21T12:57:15;10.50;;;3.40;;
62435;SDS011;48480;50.252;18.848;2023-11-21T12:59:59;5.20;;;3.70;;
62435;SDS011;48480;50.252;18.848;2023-11-21T13:02:46;6.50;;;3.60;;
62435;SDS011;48480;50.252;18.848;2023-11-21T13:05:33;6.70;;;4.90;;
62435;SDS011;48480;50.252;18.848;2023-11-21T13:08:19;8.30;;;5.40;;
62435;SDS011;48480;50.252;18.848;2023-11-21T13:11:05;8.20;;;5.60;;
62435;SDS011;48480;50.252;18.848;2023-11-21T13:13:51;9.20;;;5.50;;
62435;SDS011;48480;50.252;18.848;2023-11-21T13:16:37;18.80;;;12.90;;
62435;SDS011;48480;50.252;18.848;2023-11-21T13:19:22;8.20;;;5.30;;
62435;SDS011;48480;50.252;18.848;2023-11-21T13:22:08;6.90;;;5.00;;
62435;SDS011;48480;50.252;18.848;2023-11-21T13:24:55;6.10;;;4.10;;
62435;SDS011;48480;50.252;18.848;2023-11-21T13:27:39;6.40;;;3.00;;
62435;SDS011;48480;50.252;18.848;2023-11-21T13:30:24;6.40;;;3.70;;
62435;SDS011;48480;50.252;18.848;2023-11-21T13:33:17;6.80;;;4.40;;
62435;SDS011;48480;50.252;18.848;2023-11-21T13:36:01;8.50;;;4.80;;
62435;SDS011;48480;50.252;18.848;2023-11-21T13:38:46;9.00;;;4.40;;
62435;SDS011;48480;50.252;18.848;2023-11-21T13:41:32;7.30;;;4.90;;
62435;SDS011;48480;50.252;18.848;2023-11-21T13:44:17;6.40;;;4.80;;
62435;SDS011;48480;50.252;18.848;2023-11-21T13:47:09;7.90;;;4.20;;
62435;SDS011;48480;50.252;18.848;2023-11-21T13:49:53;12.40;;;5.00;;
62435;SDS011;48480;50.252;18.848;2023-11-21T13:52:37;8.90;;;4.60;;
62435;SDS011;48480;50.252;18.848;2023-11-21T13:55:22;7.80;;;5.10;;
62435;SDS011;48480;50.252;18.848;2023-11-21T13:58:08;8.60;;;5.30;;
62435;SDS011;48480;50.252;18.848;2023-11-21T14:00:56;6.60;;;3.70;;
62435;SDS011;48480;50.252;18.848;2023-11-21T14:03:40;7.40;;;4.80;;
62435;SDS011;48480;50.252;18.848;2023-11-21T14:06:35;9.30;;;5.20;;
62435;SDS011;48480;50.252;18.848;2023-11-21T14:09:31;9.60;;;5.80;;
62435;SDS011;48480;50.252;18.848;2023-11-21T14:12:26;7.80;;;4.70;;
62435;SDS011;48480;50.252;18.848;2023-11-21T14:15:12;7.80;;;5.20;;
62435;SDS011;48480;50.252;18.848;2023-11-21T14:18:01;9.60;;;4.90;;
62435;SDS011;48480;50.252;18.848;2023-11-21T14:20:49;9.60;;;5.40;;
62435;SDS011;48480;50.252;18.848;2023-11-21T14:23:33;9.10;;;6.30;;
62435;SDS011;48480;50.252;18.848;2023-11-21T14:26:19;11.40;;;7.00;;
62435;SDS011;48480;50.252;18.848;2023-11-21T14:29:04;11.70;;;7.10;;
62435;SDS011;48480;50.252;18.848;2023-11-21T14:31:49;11.70;;;6.20;;
62435;SDS011;48480;50.252;18.848;2023-11-21T14:34:34;8.70;;;6.20;;
62435;SDS011;48480;50.252;18.848;2023-11-21T14:37:18;10.60;;;6.80;;
62435;SDS011;48480;50.252;18.848;2023-11-21T14:40:03;9.20;;;5.10;;
62435;SDS011;48480;50.252;18.848;2023-11-21T14:42:51;7.40;;;5.00;;
62435;SDS011;48480;50.252;18.848;2023-11-21T14:45:37;9.10;;;6.50;;
62435;SDS011;48480;50.252;18.848;2023-11-21T14:48:20;8.30;;;6.40;;
62435;SDS011;48480;50.252;18.848;2023-11-21T14:51:20;10.50;;;6.90;;
62435;SDS011;48480;50.252;18.848;2023-11-21T14:54:16;11.20;;;6.90;;
62435;SDS011;48480;50.252;18.848;2023-11-21T14:57:09;13.80;;;8.80;;
62435;SDS011;48480;50.252;18.848;2023-11-21T15:00:00;12.50;;;8.20;;
62435;SDS011;48480;50.252;18.848;2023-11-21T15:02:44;12.80;;;10.00;;
62435;SDS011;48480;50.252;18.848;2023-11-21T15:05:34;10.30;;;7.80;;
62435;SDS011;48480;50.252;18.848;2023-11-21T15:08:19;12.10;;;7.20;;
62435;SDS011;48480;50.252;18.848;2023-11-21T15:11:12;10.50;;;7.90;;
62435;SDS011;48480;50.252;18.848;2023-11-21T15:14:00;14.40;;;8.70;;
62435;SDS011;48480;50.252;18.848;2023-11-21T15:16:46;8.70;;;6.90;;
62435;SDS011;48480;50.252;18.848;2023-11-21T15:19:34;14.20;;;10.20;;
62435;SDS011;48480;50.252;18.848;2023-11-21T15:22:19;12.70;;;9.10;;
62435;SDS011;48480;50.252;18.848;2023-11-21T15:25:03;15.90;;;11.10;;
62435;SDS011;48480;50.252;18.848;2023-11-21T15:27:53;16.00;;;11.70;;
62435;SDS011;48480;50.252;18.848;2023-11-21T15:30:37;16.90;;;12.30;;
62435;SDS011;48480;50.252;18.848;2023-11-21T15:33:21;17.80;;;11.80;;
62435;SDS011;48480;50.252;18.848;2023-11-21T15:36:05;13.80;;;9.40;;
62435;SDS011;48480;50.252;18.848;2023-11-21T15:38:53;14.30;;;10.30;;
62435;SDS011;48480;50.252;18.848;2023-11-21T15:41:38;16.80;;;11.10;;
62435;SDS011;48480;50.252;18.848;2023-11-21T15:44:23;16.80;;;12.60;;
62435;SDS011;48480;50.252;18.848;2023-11-21T15:47:09;19.20;;;14.30;;
62435;SDS011;48480;50.252;18.848;2023-11-21T15:49:53;20.30;;;15.50;;
62435;SDS011;48480;50.252;18.848;2023-11-21T15:52:37;23.10;;;15.60;;
62435;SDS011;48480;50.252;18.848;2023-11-21T15:55:21;24.90;;;15.90;;
62435;SDS011;48480;50.252;18.848;2023-11-21T15:58:05;19.20;;;12.40;;
62435;SDS011;48480;50.252;18.848;2023-11-21T16:00:50;20.50;;;14.40;;
62435;SDS011;48480;50.252;18.848;2023-11-21T16:03:35;21.30;;;14.90;;
62435;SDS011;48480;50.252;18.848;2023-11-21T16:06:21;23.60;;;16.60;;
62435;SDS011;48480;50.252;18.848;2023-11-21T16:09:06;23.00;;;16.50;;
62435;SDS011;48480;50.252;18.848;2023-11-21T16:12:00;26.90;;;18.80;;
62435;SDS011;48480;50.252;18.848;2023-11-21T16:14:46;29.10;;;21.60;;
62435;SDS011;48480;50.252;18.848;2023-11-21T16:17:31;25.00;;;19.90;;
62435;SDS011;48480;50.252;18.848;2023-11-21T16:20:16;25.60;;;17.90;;